Time;durP1;ratioP1;P1;durP2;ratioP2;P2;SDS_P1;SDS_P2;PMS_P1;PMS_P2;Temp;Humidity;BMP_temperature;BMP_pressure;BME280_temperature;BME280_humidity;BME280_pressure;Samples;Min_cycle;Max_cycle;Signal;HPM_P1;HPM_P2
2021/12/07 00:01:21;;;;;;;6.65;5.57;;;1.80;99.90;;;;;;5087630;28;20228;-82
2021/12/07 00:03:48;;;;;;;6.70;5.32;;;;;;;;;;5081125;28;20232;-82
2021/12/07 00:06:16;;;;;;;8.40;5.47;;;;;;;;;;5086157;28;20281;-82
2021/12/07 00:08:44;;;;;;;5.10;3.92;;;;;;;;;;5078351;28;20290;-82
2021/12/07 00:11:12;;;;;;;6.50;5.35;;;;;;;;;;5084277;28;20254;-82
2021/12/07 00:13:39;;;;;;;5.15;4.70;;;1.90;99.90;;;;;;5079613;28;20204;-82
2021/12/07 00:16:10;;;;;;;5.75;4.68;;;1.90;99.90;;;;;;5077098;28;20210;-83
2021/12/07 00:18:38;;;;;;;5.60;4.85;;;1.90;99.90;;;;;;5085905;28;20252;-82
2021/12/07 00:21:06;;;;;;;4.00;3.60;;;1.80;99.90;;;;;;5077824;28;20220;-83
2021/12/07 00:23:34;;;;;;;4.88;4.13;;;;;;;;;;5084576;28;20259;-82
2021/12/07 00:26:02;;;;;;;5.53;4.05;;;;;;;;;;5079890;28;20226;-82
2021/12/07 00:28:29;;;;;;;4.80;4.28;;;;;;;;;;5082150;28;20286;-82
2021/12/07 00:31:04;;;;;;;3.53;3.22;;;;;;;;;;5082841;28;20298;-83
2021/12/07 00:33:40;;;;;;;4.07;3.38;;;;;;;;;;5086153;28;20209;-82
2021/12/07 00:36:08;;;;;;;5.45;3.60;;;;;;;;;;5076858;28;20333;-82
2021/12/07 00:38:35;;;;;;;6.07;3.63;;;;;;;;;;5077050;28;20733;-82
2021/12/07 00:41:04;;;;;;;5.80;3.40;;;1.90;99.40;;;;;;5077729;28;20271;-82
2021/12/07 00:43:33;;;;;;;5.07;3.65;;;;;;;;;;5074839;28;20219;-83
2021/12/07 00:46:01;;;;;;;5.30;3.65;;;;;;;;;;5084161;28;20195;-82
2021/12/07 00:48:29;;;;;;;4.55;4.15;;;1.90;99.90;;;;;;5081874;28;20218;-82
2021/12/07 00:50:57;;;;;;;5.18;3.60;;;2.00;99.90;;;;;;5081925;28;20276;-83
2021/12/07 00:53:26;;;;;;;4.55;3.88;;;1.90;99.50;;;;;;5086190;28;20215;-82
2021/12/07 00:55:57;;;;;;;4.35;3.95;;;1.90;99.90;;;;;;5082348;28;20673;-82
2021/12/07 00:58:26;;;;;;;4.10;3.30;;;1.80;99.90;;;;;;5086396;28;20263;-83
2021/12/07 01:00:55;;;;;;;7.22;4.15;;;1.80;99.90;;;;;;5086225;28;20609;-82
2021/12/07 01:03:23;;;;;;;5.10;3.63;;;1.80;99.90;;;;;;5083554;28;20257;-82
2021/12/07 01:05:53;;;;;;;5.03;4.35;;;2.30;99.90;;;;;;5079910;28;20283;-82
2021/12/07 01:08:49;;;;;;;5.57;4.63;;;4.40;99.90;;;;;;5081005;28;20680;-83
2021/12/07 01:24:58;;;;;;;3.97;3.50;;;;;;;;;;5079667;28;20203;-82
2021/12/07 01:27:25;;;;;;;8.18;3.40;;;1.70;99.90;;;;;;5078599;28;20278;-81
2021/12/07 01:30:05;;;;;;;4.25;3.90;;;;;;;;;;5081849;28;20208;-82
2021/12/07 01:32:46;;;;;;;5.60;4.00;;;;;;;;;;5081478;28;20258;-81
2021/12/07 01:38:19;;;;;;;5.53;4.15;;;;;;;;;;5077577;28;20233;-82
2021/12/07 01:40:58;;;;;;;5.63;4.43;;;;;;;;;;5080792;28;20238;-82
2021/12/07 01:43:53;;;;;;;5.90;3.55;;;;;;;;;;5081897;28;20275;-82
2021/12/07 01:46:45;;;;;;;6.15;4.93;;;1.70;99.90;;;;;;5077494;28;20207;-82
2021/12/07 01:52:34;;;;;;;5.00;4.00;;;1.70;99.90;;;;;;5078911;28;20665;-83
2021/12/07 01:58:06;;;;;;;4.97;4.45;;;1.20;99.90;;;;;;5079702;28;20211;-82
2021/12/07 02:00:37;;;;;;;4.90;3.97;;;1.90;99.90;;;;;;5083219;28;20282;-83
2021/12/07 02:03:05;;;;;;;4.78;3.60;;;;;;;;;;5080676;28;20245;-83
2021/12/07 02:05:33;;;;;;;6.70;4.75;;;4.30;99.90;;;;;;5075740;28;20191;-83
2021/12/07 02:08:02;;;;;;;3.55;3.22;;;1.90;99.90;;;;;;5075676;28;20993;-83
2021/12/07 02:10:32;;;;;;;4.45;4.05;;;;;;;;;;5077103;28;20208;-83
2021/12/07 02:13:05;;;;;;;4.68;4.22;;;;;;;;;;5080507;28;20207;-83
2021/12/07 02:15:33;;;;;;;5.80;4.10;;;1.80;99.90;;;;;;5081474;28;20208;-82
2021/12/07 02:18:01;;;;;;;7.00;3.83;;;1.80;99.90;;;;;;5080406;28;20264;-82
2021/12/07 02:20:32;;;;;;;4.22;3.80;;;1.80;99.90;;;;;;5075122;28;20253;-83
2021/12/07 02:23:01;;;;;;;4.97;4.22;;;1.70;99.90;;;;;;5073655;28;20226;-83
2021/12/07 02:25:31;;;;;;;5.95;4.03;;;;;;;;;;5077995;28;20216;-83
2021/12/07 02:27:59;;;;;;;4.95;3.55;;;;;;;;;;5091751;28;20196;-83
2021/12/07 02:30:27;;;;;;;4.57;3.53;;;;;;;;;;5080626;28;20198;-82
2021/12/07 02:32:56;;;;;;;7.50;4.57;;;1.80;99.90;;;;;;5080260;28;20562;-83
2021/12/07 02:35:26;;;;;;;5.93;3.83;;;1.70;99.90;;;;;;5077610;28;20200;-82
2021/12/07 02:37:55;;;;;;;4.47;4.07;;;1.70;99.90;;;;;;5080648;28;20203;-83
2021/12/07 02:40:24;;;;;;;4.35;3.20;;;1.80;99.90;;;;;;5076927;28;20208;-82
2021/12/07 02:42:51;;;;;;;4.95;3.63;;;;;;;;;;5080760;28;20243;-82
2021/12/07 02:45:20;;;;;;;2.60;2.40;;;1.80;99.90;;;;;;5078679;28;20565;-83
2021/12/07 02:47:48;;;;;;;3.58;2.95;;;;;;;;;;5078805;28;20257;-82
2021/12/07 02:50:16;;;;;;;4.35;2.95;;;1.80;99.90;;;;;;5077447;28;20622;-82
2021/12/07 02:52:43;;;;;;;3.67;2.97;;;;;;;;;;5079095;28;20566;-83
2021/12/07 02:55:11;;;;;;;2.53;2.30;;;;;;;;;;5078717;28;20774;-83
2021/12/07 02:57:42;;;;;;;4.53;3.42;;;;;;;;;;5077768;28;20272;-82
2021/12/07 03:00:15;;;;;;;4.28;2.85;;;1.80;99.90;;;;;;5076237;28;20246;-82
2021/12/07 03:02:47;;;;;;;3.85;2.53;;;;;;;;;;5080720;28;20235;-83
2021/12/07 03:05:25;;;;;;;3.10;2.80;;;1.80;99.90;;;;;;5078115;28;20220;-82
2021/12/07 03:08:14;;;;;;;3.33;3.03;;;;;;;;;;5077628;28;20291;-82
2021/12/07 03:27:14;;;;;;;3.17;2.45;;;;;;;;;;5078794;28;20231;-82
2021/12/07 03:29:42;;;;;;;2.22;1.95;;;;;;;;;;5080276;28;20201;-82
2021/12/07 03:32:09;;;;;;;2.33;2.13;;;;;;;;;;5077900;28;20286;-82
2021/12/07 03:34:37;;;;;;;1.60;1.45;;;;;;;;;;5082732;28;20219;-82
2021/12/07 03:37:04;;;;;;;1.50;1.40;;;;;;;;;;5077157;28;20290;-82
2021/12/07 03:39:31;;;;;;;2.97;1.55;;;;;;;;;;5080435;28;20238;-82
2021/12/07 03:41:58;;;;;;;2.22;2.03;;;;;;;;;;5078425;28;20242;-82
2021/12/07 03:44:26;;;;;;;1.85;1.60;;;;;;;;;;5078680;28;20310;-82
2021/12/07 03:46:54;;;;;;;2.20;1.98;;;;;;;;;;5076083;28;20228;-83
2021/12/07 03:49:21;;;;;;;1.95;1.63;;;;;;;;;;5082923;28;21311;-82
2021/12/07 03:51:49;;;;;;;2.95;1.63;;;;;;;;;;5080417;28;20295;-82
2021/12/07 03:54:16;;;;;;;1.65;1.55;;;;;;;;;;5071161;28;20224;-82
2021/12/07 03:56:43;;;;;;;1.27;1.08;;;;;;;;;;5075098;28;20203;-83
2021/12/07 03:59:10;;;;;;;1.70;1.60;;;;;;;;;;5077483;28;20302;-82
2021/12/07 04:01:38;;;;;;;1.40;1.30;;;;;;;;;;5075973;28;20659;-82
2021/12/07 04:04:06;;;;;;;1.35;1.25;;;;;;;;;;5084230;28;21075;-82
2021/12/07 04:06:34;;;;;;;1.55;1.45;;;;;;;;;;5072128;28;20279;-82
2021/12/07 04:09:01;;;;;;;1.63;1.42;;;;;;;;;;5080493;28;20283;-82
2021/12/07 04:11:28;;;;;;;1.33;1.23;;;;;;;;;;5083160;28;20236;-82
2021/12/07 04:13:55;;;;;;;1.70;1.60;;;;;;;;;;5079934;28;20197;-82
2021/12/07 04:16:23;;;;;;;1.55;1.30;;;;;;;;;;5074109;28;20731;-82
2021/12/07 04:18:50;;;;;;;1.55;1.45;;;;;;;;;;5079155;28;20733;-82
2021/12/07 04:21:18;;;;;;;2.35;2.00;;;;;;;;;;5080432;28;20591;-82
2021/12/07 04:23:45;;;;;;;1.88;1.40;;;;;;;;;;5082555;28;20282;-82
2021/12/07 04:26:14;;;;;;;1.58;1.48;;;2.40;99.90;;;;;;5077439;28;20236;-82
2021/12/07 04:28:42;;;;;;;1.88;1.58;;;2.40;99.90;;;;;;5081441;28;20285;-82
2021/12/07 04:31:10;;;;;;;2.80;1.63;;;2.50;99.90;;;;;;5082440;28;20298;-82
2021/12/07 04:33:37;;;;;;;1.80;1.55;;;;;;;;;;5081347;28;20201;-82
2021/12/07 04:36:07;;;;;;;1.98;1.55;;;2.50;99.90;;;;;;5085925;28;20249;-82
2021/12/07 04:38:36;;;;;;;1.83;1.70;;;;;;;;;;5078505;28;20241;-82
2021/12/07 04:41:03;;;;;;;2.10;2.00;;;;;;;;;;5080507;28;20243;-82
2021/12/07 04:43:30;;;;;;;1.55;1.45;;;2.40;99.90;;;;;;5081061;28;20220;-82
2021/12/07 04:46:06;;;;;;;2.92;1.90;;;2.50;99.90;;;;;;5077941;28;20566;-82
2021/12/07 04:59:31;;;;;;;1.98;1.88;;;2.40;99.90;;;;;;5086117;28;20262;-82
2021/12/07 05:01:57;;;;;;;1.85;1.75;;;2.40;99.90;;;;;;5078822;28;20205;-82
2021/12/07 05:04:28;;;;;;;1.98;1.50;;;;;;;;;;5080250;28;20242;-82
2021/12/07 05:07:03;;;;;;;1.30;1.20;;;0.80;99.90;;;;;;5080634;28;20589;-81
2021/12/07 05:12:29;;;;;;;1.90;1.50;;;2.40;99.90;;;;;;5076164;28;20210;-82
2021/12/07 05:15:04;;;;;;;1.20;1.10;;;;;;;;;;5082394;28;20203;-82
2021/12/07 05:34:29;;;;;;;1.70;1.55;;;;;;;;;;5068702;28;20245;-82
2021/12/07 05:40:07;;;;;;;2.28;2.08;;;1.90;99.90;;;;;;5083536;28;20657;-84
2021/12/07 05:42:38;;;;;;;4.35;1.90;;;2.30;99.90;;;;;;5077209;28;20278;-84
2021/12/07 05:45:10;;;;;;;1.52;1.42;;;2.30;99.90;;;;;;5080633;28;20226;-85
2021/12/07 05:47:37;;;;;;;6.22;2.05;;;;;;;;;;5076920;28;20236;-85
2021/12/07 05:50:05;;;;;;;1.60;1.48;;;2.20;99.90;;;;;;5083783;28;20227;-84
2021/12/07 05:52:32;;;;;;;6.47;1.67;;;;;;;;;;5082218;28;20818;-85
2021/12/07 05:54:59;;;;;;;1.65;1.55;;;1.80;99.90;;;;;;5081849;28;20224;-84
2021/12/07 05:57:26;;;;;;;2.42;1.75;;;;;;;;;;5077369;28;20233;-84
2021/12/07 05:59:54;;;;;;;3.30;1.92;;;2.10;99.90;;;;;;5082688;28;20637;-84
2021/12/07 06:02:21;;;;;;;2.25;1.60;;;;;;;;;;5073789;28;20233;-85
2021/12/07 06:04:48;;;;;;;1.60;1.45;;;;;;;;;;5083234;28;20229;-85
2021/12/07 06:07:16;;;;;;;1.40;1.30;;;;;;;;;;5071421;28;20287;-84
2021/12/07 06:09:43;;;;;;;1.73;1.63;;;;;;;;;;5072023;28;20192;-84
2021/12/07 06:12:10;;;;;;;1.58;1.33;;;;;;;;;;5076135;28;20600;-84
2021/12/07 06:14:42;;;;;;;2.50;1.80;;;;;;;;;;5080321;28;20686;-84
2021/12/07 06:17:13;;;;;;;4.22;1.92;;;1.90;99.90;;;;;;5080404;28;20544;-85
2021/12/07 06:19:41;;;;;;;1.58;1.30;;;;;;;;;;5072723;28;20328;-85
2021/12/07 06:22:09;;;;;;;2.25;1.70;;;;;;;;;;5080372;28;20224;-84
2021/12/07 06:24:36;;;;;;;2.22;2.05;;;;;;;;;;5076276;28;20298;-85
2021/12/07 06:27:03;;;;;;;3.88;1.95;;;;;;;;;;5084377;28;20195;-85
2021/12/07 06:29:30;;;;;;;4.05;2.10;;;;;;;;;;5080849;28;20245;-85
2021/12/07 06:31:58;;;;;;;2.70;1.73;;;;;;;;;;5077816;28;20902;-85
2021/12/07 06:34:26;;;;;;;2.08;1.73;;;;;;;;;;5085218;28;20268;-85
2021/12/07 06:36:53;;;;;;;4.72;2.47;;;;;;;;;;5078553;28;20250;-85
2021/12/07 06:39:22;;;;;;;3.90;2.33;;;;;;;;;;5069544;28;20343;-84
2021/12/07 06:41:49;;;;;;;2.85;2.30;;;;;;;;;;5083851;28;20281;-84
2021/12/07 06:44:16;;;;;;;3.40;2.67;;;;;;;;;;5079057;28;20648;-85
2021/12/07 06:46:47;;;;;;;2.80;2.47;;;1.90;99.90;;;;;;5076148;28;20282;-85
2021/12/07 06:49:15;;;;;;;2.00;1.90;;;;;;;;;;5078323;28;20664;-84
2021/12/07 06:51:43;;;;;;;3.80;2.17;;;;;;;;;;5075839;28;20230;-84
2021/12/07 06:54:10;;;;;;;3.35;2.42;;;;;;;;;;5082705;28;20241;-85
2021/12/07 06:56:38;;;;;;;1.45;1.23;;;;;;;;;;5075813;28;20229;-85
2021/12/07 06:59:06;;;;;;;6.30;2.42;;;2.00;99.90;;;;;;5073636;28;20230;-85
2021/12/07 07:01:34;;;;;;;1.77;1.50;;;2.10;99.90;;;;;;5076174;28;20228;-85
2021/12/07 07:04:01;;;;;;;9.65;2.63;;;;;;;;;;5077700;28;20223;-85
2021/12/07 07:06:28;;;;;;;2.10;1.90;;;;;;;;;;5080747;28;20203;-85
2021/12/07 07:08:57;;;;;;;2.20;2.00;;;;;;;;;;5077205;28;20205;-85
2021/12/07 07:11:24;;;;;;;2.95;1.90;;;;;;;;;;5078717;28;20314;-85
2021/12/07 07:13:51;;;;;;;1.40;1.30;;;;;;;;;;5081104;28;20228;-85
2021/12/07 07:16:19;;;;;;;2.88;2.15;;;;;;;;;;5075775;28;20333;-85
2021/12/07 07:18:46;;;;;;;2.30;2.10;;;;;;;;;;5080689;28;20196;-84
2021/12/07 07:21:13;;;;;;;4.35;2.33;;;;;;;;;;5083022;28;20295;-84
2021/12/07 07:23:40;;;;;;;7.43;3.25;;;;;;;;;;5074186;28;20233;-85
2021/12/07 07:26:09;;;;;;;2.85;1.73;;;;;;;;;;5086795;28;20204;-86
2021/12/07 07:28:36;;;;;;;8.07;2.50;;;;;;;;;;5079415;28;20280;-85
2021/12/07 07:31:05;;;;;;;3.00;2.03;;;;;;;;;;5078400;28;20205;-85
2021/12/07 07:33:32;;;;;;;2.35;1.65;;;;;;;;;;5081403;28;20292;-85
2021/12/07 07:35:59;;;;;;;4.03;2.50;;;;;;;;;;5083759;28;20235;-85
2021/12/07 07:38:27;;;;;;;2.05;1.85;;;;;;;;;;5080232;28;20913;-85
2021/12/07 07:40:54;;;;;;;7.07;2.60;;;;;;;;;;5075366;28;20273;-85
2021/12/07 07:43:23;;;;;;;5.53;2.60;;;;;;;;;;5083965;28;20200;-84
2021/12/07 07:45:51;;;;;;;3.42;2.50;;;2.50;99.90;;;;;;5087142;28;20255;-85
2021/12/07 07:48:19;;;;;;;7.30;2.55;;;;;;;;;;5082691;28;20205;-85
2021/12/07 07:50:46;;;;;;;3.70;3.40;;;;;;;;;;5083191;28;20233;-85
2021/12/07 07:53:14;;;;;;;4.05;3.40;;;;;;;;;;5085767;28;20243;-85
2021/12/07 07:55:42;;;;;;;3.40;3.05;;;;;;;;;;5089137;28;20208;-85
2021/12/07 07:58:10;;;;;;;10.82;4.22;;;;;;;;;;5083445;28;20208;-84
2021/12/07 08:00:39;;;;;;;4.22;3.80;;;;;;;;;;5086915;28;20261;-85
2021/12/07 08:03:06;;;;;;;5.70;5.20;;;;;;;;;;5086332;28;20288;-85
2021/12/07 08:05:33;;;;;;;4.80;3.28;;;2.70;99.90;;;;;;5085642;28;20225;-85
2021/12/07 08:08:01;;;;;;;2.72;2.47;;;;;;;;;;5085014;28;20252;-85
2021/12/07 08:10:29;;;;;;;4.18;2.70;;;;;;;;;;5086246;28;20250;-85
2021/12/07 08:12:56;;;;;;;5.82;2.20;;;;;;;;;;5086992;28;20230;-85
2021/12/07 08:15:24;;;;;;;1.77;1.60;;;;;;;;;;5083426;28;20585;-85
2021/12/07 08:17:52;;;;;;;8.32;2.10;;;;;;;;;;5090178;28;20193;-85
2021/12/07 08:20:19;;;;;;;3.05;1.83;;;;;;;;;;5082435;28;20201;-86
2021/12/07 08:22:47;;;;;;;3.22;2.28;;;;;;;;;;5089404;28;20201;-85
2021/12/07 08:25:14;;;;;;;3.88;2.10;;;;;;;;;;5088617;28;20838;-85
2021/12/07 08:27:41;;;;;;;7.57;2.55;;;;;;;;;;5083495;28;20265;-85
2021/12/07 08:30:10;;;;;;;2.58;2.20;;;;;;;;;;5081691;28;20263;-85
2021/12/07 08:32:39;;;;;;;2.97;1.75;;;;;;;;;;5084579;28;20295;-85
2021/12/07 08:35:08;;;;;;;2.63;2.25;;;;;;;;;;5077800;28;20689;-85
2021/12/07 08:37:35;;;;;;;2.78;1.90;;;;;;;;;;5077765;28;20254;-85
2021/12/07 08:40:02;;;;;;;2.95;2.05;;;;;;;;;;5083271;28;20209;-85
2021/12/07 08:42:29;;;;;;;1.92;1.67;;;;;;;;;;5080635;28;20616;-85
2021/12/07 08:44:56;;;;;;;3.50;2.03;;;;;;;;;;5080630;28;20228;-85
2021/12/07 08:47:24;;;;;;;3.78;3.03;;;;;;;;;;5081414;28;20745;-84
2021/12/07 08:49:54;;;;;;;2.30;1.75;;;;;;;;;;5082206;28;20207;-85
2021/12/07 08:52:22;;;;;;;3.95;2.00;;;;;;;;;;5079153;28;20209;-85
2021/12/07 09:00:19;;;;;;;6.13;3.00;;;;;;;;;;5084627;28;20275;-85
2021/12/07 09:02:46;;;;;;;3.17;2.70;;;;;;;;;;5079532;28;20267;-85
2021/12/07 09:05:14;;;;;;;2.03;1.60;;;;;;;;;;5082256;28;20232;-85
2021/12/07 09:07:42;;;;;;;1.70;1.60;;;;;;;;;;5077766;28;20259;-85
2021/12/07 09:10:10;;;;;;;2.65;2.22;;;;;;;;;;5084152;28;20209;-85
2021/12/07 09:12:37;;;;;;;2.90;1.48;;;;;;;;;;5075140;28;20765;-85
2021/12/07 09:15:05;;;;;;;3.28;2.03;;;;;;;;;;5081426;28;20194;-85
2021/12/07 09:17:32;;;;;;;4.03;1.77;;;;;;;;;;5078940;28;20214;-85
2021/12/07 09:19:59;;;;;;;2.40;2.10;;;;;;;;;;5082176;28;20635;-85
2021/12/07 09:22:28;;;;;;;2.50;2.30;;;;;;;;;;5081551;28;20201;-85
2021/12/07 09:24:56;;;;;;;2.75;2.38;;;;;;;;;;5083866;28;20295;-85
2021/12/07 09:27:24;;;;;;;12.75;2.45;;;;;;;;;;5078233;28;20202;-84
2021/12/07 09:29:51;;;;;;;4.90;1.85;;;;;;;;;;5070321;28;20228;-84
2021/12/07 09:32:18;;;;;;;2.42;1.83;;;;;;;;;;5078565;28;20230;-85
2021/12/07 09:34:45;;;;;;;3.17;1.95;;;;;;;;;;5083300;28;20209;-84
2021/12/07 09:37:13;;;;;;;2.80;2.47;;;;;;;;;;5079514;28;20263;-84
2021/12/07 09:39:40;;;;;;;5.20;1.92;;;;;;;;;;5079051;28;20211;-84
2021/12/07 09:42:09;;;;;;;3.80;2.08;;;;;;;;;;5081871;28;20221;-84
2021/12/07 09:44:36;;;;;;;1.83;1.70;;;;;;;;;;5069064;28;20233;-84
2021/12/07 09:47:03;;;;;;;3.63;1.65;;;;;;;;;;5078147;28;20208;-84
2021/12/07 09:49:30;;;;;;;1.50;1.15;;;;;;;;;;5082154;28;20333;-84
2021/12/07 09:51:57;;;;;;;2.85;1.90;;;;;;;;;;5080602;28;20310;-84
2021/12/07 09:54:25;;;;;;;2.67;1.48;;;;;;;;;;5069361;28;20265;-85
2021/12/07 09:56:52;;;;;;;1.60;1.50;;;;;;;;;;5074967;28;20308;-84
2021/12/07 09:59:20;;;;;;;7.45;2.20;;;3.60;99.90;;;;;;5080644;28;20217;-84
2021/12/07 10:01:47;;;;;;;3.67;1.65;;;;;;;;;;5083548;28;20227;-84
2021/12/07 10:04:14;;;;;;;3.78;1.75;;;;;;;;;;5081038;28;20279;-84
2021/12/07 10:06:42;;;;;;;1.50;1.02;;;;;;;;;;5080758;28;20202;-83
2021/12/07 10:09:09;;;;;;;2.15;1.30;;;3.80;99.90;;;;;;5074768;28;20210;-84
2021/12/07 10:11:36;;;;;;;4.03;2.25;;;;;;;;;;5080420;28;20200;-83
2021/12/07 10:14:04;;;;;;;2.22;1.83;;;3.90;99.90;;;;;;5081212;28;20279;-84
2021/12/07 10:16:33;;;;;;;2.85;1.50;;;;;;;;;;5077960;28;21005;-84
2021/12/07 10:19:00;;;;;;;2.05;1.45;;;;;;;;;;5079444;28;20977;-84
2021/12/07 10:21:30;;;;;;;3.35;1.48;;;4.00;99.30;;;;;;5081528;28;20206;-83
2021/12/07 10:24:00;;;;;;;4.03;1.42;;;4.00;99.20;;;;;;5078823;28;20245;-83
2021/12/07 10:26:29;;;;;;;4.20;1.90;;;3.90;99.10;;;;;;5083960;28;20240;-84
2021/12/07 10:28:58;;;;;;;4.78;1.05;;;3.80;99.10;;;;;;5079855;28;20296;-84
2021/12/07 10:31:30;;;;;;;1.30;1.20;;;3.80;99.50;;;;;;5080695;28;20574;-84
2021/12/07 10:34:02;;;;;;;9.43;1.75;;;4.00;99.90;;;;;;5082650;28;20767;-84
2021/12/07 10:36:31;;;;;;;2.00;1.55;;;;;;;;;;5079684;28;20208;-84
2021/12/07 10:39:01;;;;;;;1.63;1.30;;;;;;;;;;5081598;28;20214;-84
2021/12/07 10:41:32;;;;;;;1.50;1.30;;;3.70;98.00;;;;;;5083800;28;20261;-84
2021/12/07 10:44:02;;;;;;;1.95;1.40;;;3.80;99.10;;;;;;5076708;28;20663;-83
2021/12/07 10:46:56;;;;;;;3.55;1.50;;;3.80;99.20;;;;;;5078136;28;20607;-84
2021/12/07 10:49:34;;;;;;;2.00;1.25;;;3.70;96.00;;;;;;5079477;28;20199;-84
2021/12/07 10:52:13;;;;;;;3.60;1.33;;;3.70;98.70;;;;;;5082680;28;20285;-84
2021/12/07 10:54:44;;;;;;;3.88;2.17;;;3.70;99.30;;;;;;5080686;28;20196;-84
2021/12/07 10:57:13;;;;;;;1.45;1.25;;;3.70;99.70;;;;;;5079694;28;20204;-84
2021/12/07 10:59:41;;;;;;;1.60;1.40;;;;;;;;;;5078817;28;20198;-83
2021/12/07 11:02:15;;;;;;;2.63;1.48;;;;;;;;;;5075325;28;20217;-83
2021/12/07 11:04:44;;;;;;;3.88;1.25;;;3.70;98.30;;;;;;5082046;28;20228;-83
2021/12/07 11:07:18;;;;;;;1.17;1.15;;;3.90;96.40;;;;;;5068853;28;20340;-84
2021/12/07 11:09:51;;;;;;;3.17;2.45;;;4.00;99.00;;;;;;5079901;28;20521;-84
2021/12/07 11:12:20;;;;;;;1.27;1.17;;;4.10;97.70;;;;;;5079068;28;20199;-84
2021/12/07 11:14:50;;;;;;;3.47;1.15;;;;;;;;;;5076940;28;20221;-83
2021/12/07 11:17:20;;;;;;;2.00;1.33;;;4.30;99.90;;;;;;5075345;28;20206;-84
2021/12/07 11:19:49;;;;;;;1.90;0.95;;;;;;;;;;5075485;28;20820;-84
2021/12/07 11:22:18;;;;;;;2.65;1.45;;;4.20;99.50;;;;;;5072678;28;20802;-83
2021/12/07 11:24:45;;;;;;;1.02;0.85;;;;;;;;;;5081747;28;20934;-84
2021/12/07 11:30:00;;;;;;;5.00;1.40;;;4.20;96.60;;;;;;5079111;28;20347;-84
2021/12/07 11:32:28;;;;;;;3.22;1.05;;;;;;;;;;5080343;28;20254;-83
2021/12/07 11:35:08;;;;;;;2.13;1.65;;;4.50;99.90;;;;;;5076734;28;20660;-83
2021/12/07 11:37:36;;;;;;;3.72;1.50;;;;;;;;;;5085729;28;20224;-83
2021/12/07 11:40:07;;;;;;;1.92;1.40;;;4.30;98.10;;;;;;5081017;28;20203;-83
2021/12/07 11:42:37;;;;;;;2.65;1.10;;;;;;;;;;5082267;28;20201;-84
2021/12/07 11:45:06;;;;;;;2.28;1.45;;;;;;;;;;5085596;28;20220;-83
2021/12/07 11:47:35;;;;;;;1.27;1.23;;;;;;;;;;5084560;28;20191;-84
2021/12/07 11:50:10;;;;;;;11.50;1.20;;;;;;;;;;5085143;28;20273;-84
2021/12/07 11:52:38;;;;;;;2.75;1.25;;;;;;;;;;5083717;28;20302;-84
2021/12/07 11:55:07;;;;;;;2.92;1.33;;;4.50;98.00;;;;;;5083617;28;20289;-84
2021/12/07 11:57:35;;;;;;;3.17;1.70;;;;;;;;;;5084369;28;20206;-83
2021/12/07 12:00:02;;;;;;;4.30;1.45;;;;;;;;;;5085397;28;20303;-83
2021/12/07 12:02:29;;;;;;;6.28;1.35;;;;;;;;;;5080326;28;20223;-83
2021/12/07 12:04:57;;;;;;;1.15;1.05;;;;;;;;;;5085613;28;20618;-83
2021/12/07 12:07:25;;;;;;;2.75;1.10;;;4.70;96.80;;;;;;5083641;28;20226;-83
2021/12/07 12:09:54;;;;;;;1.92;1.42;;;;;;;;;;5078546;28;20201;-84
2021/12/07 12:12:26;;;;;;;1.23;1.10;;;5.00;97.60;;;;;;5082096;28;20608;-84
2021/12/07 12:15:05;;;;;;;5.45;1.23;;;5.00;97.30;;;;;;5078315;28;20202;-84
2021/12/07 12:17:45;;;;;;;3.85;1.17;;;5.00;94.20;;;;;;5072974;28;20256;-83
2021/12/07 12:20:32;;;;;;;1.77;1.05;;;4.90;96.50;;;;;;5079537;28;20232;-83
2021/12/07 12:23:10;;;;;;;3.80;1.33;;;4.80;97.30;;;;;;5079041;28;20235;-83
2021/12/07 12:25:38;;;;;;;1.67;1.33;;;;;;;;;;5073689;28;20227;-84
2021/12/07 12:28:05;;;;;;;1.50;1.40;;;;;;;;;;5075286;28;20216;-84
2021/12/07 12:30:34;;;;;;;4.50;1.42;;;5.10;98.00;;;;;;5083781;28;20590;-83
2021/12/07 12:33:04;;;;;;;1.45;1.35;;;5.10;97.40;;;;;;5078971;28;20217;-84
2021/12/07 12:35:38;;;;;;;1.63;1.50;;;5.30;97.40;;;;;;5083857;28;20196;-84
2021/12/07 12:38:16;;;;;;;3.13;1.00;;;5.30;97.80;;;;;;5078589;28;20206;-84
2021/12/07 12:40:43;;;;;;;4.25;1.45;;;;;;;;;;5080342;28;20219;-84
2021/12/07 12:43:13;;;;;;;1.95;1.25;;;;;;;;;;5086340;28;20226;-84
2021/12/07 12:45:42;;;;;;;1.58;1.00;;;;;;;;;;5079553;28;20219;-84
2021/12/07 12:48:18;;;;;;;1.15;1.05;;;5.00;94.40;;;;;;5078804;28;20208;-84
2021/12/07 12:50:49;;;;;;;2.58;1.13;;;5.10;95.20;;;;;;5084646;28;20211;-84
2021/12/07 12:53:20;;;;;;;2.00;1.00;;;4.90;94.60;;;;;;5076045;28;20283;-84
2021/12/07 12:55:48;;;;;;;3.78;1.20;;;4.80;94.70;;;;;;5074431;28;20310;-84
2021/12/07 12:58:21;;;;;;;2.20;1.27;;;4.80;93.80;;;;;;5078791;28;20229;-84
2021/12/07 13:01:05;;;;;;;3.65;0.82;;;4.80;93.60;;;;;;5077309;28;20203;-84
2021/12/07 13:03:46;;;;;;;2.22;1.13;;;4.80;93.30;;;;;;5081816;28;20203;-84
2021/12/07 13:06:16;;;;;;;3.08;1.20;;;4.80;93.80;;;;;;5080703;28;20280;-84
2021/12/07 13:08:55;;;;;;;2.35;1.00;;;;;;;;;;5078298;28;20683;-84
2021/12/07 13:11:34;;;;;;;2.13;1.30;;;4.80;91.30;;;;;;5082610;28;20929;-83
2021/12/07 13:14:01;;;;;;;3.15;1.40;;;;;;;;;;5079914;28;20203;-84
2021/12/07 13:16:28;;;;;;;2.28;1.50;;;;;;;;;;5078343;28;20557;-84
2021/12/07 13:19:01;;;;;;;2.05;1.63;;;5.10;93.50;;;;;;5080098;28;20293;-84
2021/12/07 13:21:30;;;;;;;3.40;1.60;;;5.10;94.90;;;;;;5084011;28;20282;-84
2021/12/07 13:24:00;;;;;;;3.20;2.13;;;5.10;96.00;;;;;;5081432;28;20236;-83
2021/12/07 13:26:28;;;;;;;2.95;1.35;;;;;;;;;;5083947;28;20734;-84
2021/12/07 13:29:11;;;;;;;2.22;1.27;;;5.00;94.90;;;;;;5078234;28;20264;-83
2021/12/07 13:31:40;;;;;;;2.15;1.10;;;;;;;;;;5080341;28;20207;-83
2021/12/07 13:34:07;;;;;;;2.95;2.20;;;;;;;;;;5083546;28;20213;-83
2021/12/07 13:36:54;;;;;;;2.40;1.50;;;5.10;95.20;;;;;;5083919;28;20241;-83
2021/12/07 13:39:33;;;;;;;1.88;1.77;;;;;;;;;;5079324;28;20238;-83
2021/12/07 13:42:04;;;;;;;3.47;3.22;;;5.10;96.60;;;;;;5080840;28;20207;-84
2021/12/07 13:44:33;;;;;;;1.50;1.38;;;4.80;96.10;;;;;;5081254;28;20285;-84
2021/12/07 13:47:02;;;;;;;2.08;1.88;;;5.10;96.30;;;;;;5085151;28;20230;-84
2021/12/07 13:49:32;;;;;;;1.48;1.38;;;;;;;;;;5081631;28;20482;-83
2021/12/07 13:51:59;;;;;;;9.43;1.75;;;4.70;95.70;;;;;;5083758;28;20202;-84
2021/12/07 13:54:27;;;;;;;7.40;1.58;;;;;;;;;;5081583;28;20198;-83
2021/12/07 13:56:58;;;;;;;3.22;1.27;;;4.70;96.10;;;;;;5073226;28;20792;-84
2021/12/07 13:59:26;;;;;;;1.55;1.35;;;4.80;96.30;;;;;;5081820;28;20244;-83
2021/12/07 14:01:56;;;;;;;2.67;1.80;;;4.80;95.50;;;;;;5086869;28;20328;-83
2021/12/07 14:04:26;;;;;;;5.18;1.70;;;4.80;95.80;;;;;;5081004;28;20667;-84
2021/12/07 14:06:53;;;;;;;2.40;1.75;;;;;;;;;;5077801;28;20263;-83
2021/12/07 14:09:21;;;;;;;2.75;1.65;;;4.80;95.20;;;;;;5081350;28;20955;-84
2021/12/07 14:11:52;;;;;;;3.22;1.95;;;;;;;;;;5083980;28;20227;-83
2021/12/07 14:14:21;;;;;;;2.58;1.38;;;;;;;;;;5087257;28;20230;-83
2021/12/07 14:16:49;;;;;;;3.95;1.60;;;5.00;97.70;;;;;;5076555;28;20277;-84
2021/12/07 14:19:18;;;;;;;2.50;1.50;;;;;;;;;;5078305;28;20214;-83
2021/12/07 14:21:46;;;;;;;0.70;0.70;;;;;;;;;;5080593;28;20210;-84
2021/12/07 14:24:19;;;;;;;2.25;1.13;;;;;;;;;;5086189;28;20208;-83
2021/12/07 14:26:47;;;;;;;2.00;1.10;;;4.90;94.30;;;;;;5083394;28;20222;-84
2021/12/07 14:29:16;;;;;;;9.68;8.45;;;4.80;94.50;;;;;;5080854;28;20207;-84
2021/12/07 14:31:47;;;;;;;4.72;3.80;;;4.70;93.10;;;;;;5080944;28;20261;-83
2021/12/07 14:34:17;;;;;;;7.25;5.80;;;4.60;97.10;;;;;;5078243;28;20241;-83
2021/12/07 14:36:48;;;;;;;4.65;3.33;;;4.50;96.90;;;;;;5087591;28;20205;-83
2021/12/07 14:39:17;;;;;;;6.85;3.45;;;4.50;94.10;;;;;;5083360;28;20237;-83
2021/12/07 14:41:46;;;;;;;2.50;1.52;;;4.50;95.00;;;;;;5086061;28;20267;-83
2021/12/07 14:44:17;;;;;;;1.60;1.50;;;4.60;92.10;;;;;;5079562;28;20252;-83
2021/12/07 14:46:47;;;;;;;2.47;2.28;;;4.20;96.10;;;;;;5081787;28;20325;-83
2021/12/07 14:49:16;;;;;;;5.22;1.98;;;4.20;97.40;;;;;;5082569;28;20209;-84
2021/12/07 14:51:44;;;;;;;3.35;1.92;;;4.20;96.60;;;;;;5080475;28;20231;-83
2021/12/07 14:54:11;;;;;;;4.07;1.40;;;;;;;;;;5072631;28;20655;-83
2021/12/07 14:56:38;;;;;;;2.03;1.42;;;;;;;;;;5085279;28;20201;-83
2021/12/07 14:59:07;;;;;;;3.05;1.63;;;;;;;;;;5075955;28;20264;-84
2021/12/07 15:01:36;;;;;;;2.13;1.65;;;;;;;;;;5076829;28;20605;-84
2021/12/07 15:04:05;;;;;;;5.05;1.73;;;;;;;;;;5075206;28;20724;-83
2021/12/07 15:06:34;;;;;;;1.65;1.50;;;;;;;;;;5084444;28;20255;-83
2021/12/07 15:09:04;;;;;;;2.42;2.00;;;3.70;99.50;;;;;;5079663;28;20716;-84
2021/12/07 15:11:32;;;;;;;3.65;3.33;;;;;;;;;;5077531;28;20247;-83
2021/12/07 15:13:59;;;;;;;5.43;3.25;;;;;;;;;;5083342;28;20208;-83
2021/12/07 15:16:26;;;;;;;4.10;2.65;;;;;;;;;;5079192;28;20290;-83
2021/12/07 15:18:53;;;;;;;2.60;2.15;;;;;;;;;;5082519;28;20206;-84
2021/12/07 15:21:23;;;;;;;4.97;2.13;;;3.50;99.90;;;;;;5079937;28;20237;-84
2021/12/07 15:23:52;;;;;;;7.43;2.10;;;;;;;;;;5078902;28;20202;-83
2021/12/07 15:26:21;;;;;;;3.05;2.20;;;;;;;;;;5080055;28;20229;-83
2021/12/07 15:28:55;;;;;;;1.73;1.63;;;;;;;;;;5079764;28;20204;-83
2021/12/07 15:31:22;;;;;;;5.35;2.38;;;;;;;;;;5082883;28;20236;-83
2021/12/07 15:33:50;;;;;;;4.07;1.50;;;;;;;;;;5080693;28;20690;-83